createdAt,value
2018-05-02T00:02:02.203Z,2.93
2018-05-02T00:04:29.710Z,3.00
2018-05-02T00:06:57.179Z,3.50
2018-05-02T00:09:24.699Z,3.37
2018-05-02T00:11:52.203Z,3.43
2018-05-02T00:14:19.775Z,3.10
2018-05-02T00:16:47.250Z,2.50
2018-05-02T00:19:14.718Z,3.10
2018-05-02T00:21:42.197Z,2.67
2018-05-02T00:24:09.667Z,2.83
2018-05-02T00:26:37.911Z,2.50
2018-05-02T00:29:05.414Z,2.70
2018-05-02T00:31:32.994Z,3.43
2018-05-02T00:34:00.504Z,2.90
2018-05-02T00:36:27.953Z,2.50
2018-05-02T00:38:55.434Z,2.70
2018-05-02T00:41:23.035Z,2.57
2018-05-02T00:43:50.552Z,2.73
2018-05-02T00:46:18.024Z,3.17
2018-05-02T00:48:57.406Z,2.43
2018-05-02T00:51:24.890Z,3.03
2018-05-02T00:53:52.415Z,2.77
2018-05-02T00:56:20.659Z,2.70
2018-05-02T00:58:48.960Z,2.83
2018-05-02T01:01:16.482Z,2.93
2018-05-02T01:03:43.967Z,2.73
2018-05-02T01:06:11.551Z,2.90
2018-05-02T01:08:39.346Z,3.40
2018-05-02T01:11:07.173Z,2.80
2018-05-02T01:13:34.750Z,2.77
2018-05-02T01:16:02.372Z,3.10
2018-05-02T01:18:30.199Z,2.97
2018-05-02T01:20:57.795Z,3.00
2018-05-02T01:23:25.528Z,2.87
2018-05-02T01:25:53.098Z,2.60
2018-05-02T01:28:20.679Z,3.03
2018-05-02T01:30:48.155Z,2.77
2018-05-02T01:33:15.673Z,3.10
2018-05-02T01:35:43.259Z,3.10
2018-05-02T01:38:10.731Z,3.20
2018-05-02T01:40:38.207Z,2.93
2018-05-02T01:43:05.675Z,2.50
2018-05-02T01:45:33.156Z,2.87
2018-05-02T01:48:00.727Z,3.10
2018-05-02T01:50:28.219Z,3.27
2018-05-02T01:52:56.129Z,3.50
2018-05-02T01:55:23.606Z,3.53
2018-05-02T01:57:51.171Z,3.03
2018-05-02T02:00:18.748Z,3.50
2018-05-02T02:02:46.214Z,3.30
2018-05-02T02:05:13.688Z,3.10
2018-05-02T02:07:41.155Z,3.37
2018-05-02T02:10:08.641Z,3.50
2018-05-02T02:12:36.184Z,3.23
2018-05-02T02:15:03.664Z,3.73
2018-05-02T02:17:31.138Z,3.37
2018-05-02T02:19:58.658Z,3.20
2018-05-02T02:22:26.138Z,3.30
2018-05-02T02:24:53.726Z,2.83
2018-05-02T02:27:21.307Z,3.10
2018-05-02T02:29:48.787Z,3.30
2018-05-02T02:32:16.268Z,3.67
2018-05-02T02:34:43.756Z,3.30
2018-05-02T02:37:11.251Z,3.03
2018-05-02T02:39:38.830Z,3.33
2018-05-02T02:42:06.303Z,3.87
2018-05-02T02:44:33.775Z,3.63
2018-05-02T02:47:01.314Z,3.90
2018-05-02T02:49:29.600Z,3.53
2018-05-02T02:51:57.080Z,3.90
2018-05-02T02:54:24.577Z,3.80
2018-05-02T02:56:52.844Z,3.73
2018-05-02T02:59:20.319Z,3.77
2018-05-02T03:01:47.851Z,4.00
2018-05-02T03:04:15.315Z,4.00
2018-05-02T03:06:42.831Z,4.23
2018-05-02T03:09:10.316Z,3.27
2018-05-02T03:11:37.898Z,4.10
2018-05-02T03:14:05.475Z,3.90
2018-05-02T03:16:32.948Z,3.90
2018-05-02T03:19:00.427Z,3.67
2018-05-02T03:21:28.658Z,3.37
2018-05-02T03:23:56.143Z,4.20
2018-05-02T03:26:23.627Z,4.30
2018-05-02T03:28:51.127Z,3.60
2018-05-02T03:31:18.598Z,3.67
2018-05-02T03:33:46.079Z,3.40
2018-05-02T03:36:13.598Z,3.53
2018-05-02T03:38:41.073Z,3.57
2018-05-02T03:41:08.551Z,3.50
2018-05-02T03:43:36.048Z,3.70
2018-05-02T03:46:04.282Z,3.50
2018-05-02T03:48:31.842Z,3.60
2018-05-02T03:50:59.315Z,3.50
2018-05-02T03:53:26.786Z,3.67
2018-05-02T03:55:54.296Z,3.67
2018-05-02T03:58:21.778Z,3.33
2018-05-02T04:01:01.247Z,4.50
2018-05-02T04:03:40.506Z,3.43
2018-05-02T04:06:14.031Z,3.83
2018-05-02T04:08:41.607Z,4.20
2018-05-02T04:11:09.103Z,3.90
2018-05-02T04:13:36.590Z,4.30
2018-05-02T04:16:04.068Z,3.50
2018-05-02T04:18:31.539Z,4.03
2018-05-02T04:20:59.038Z,3.93
2018-05-02T04:23:26.558Z,4.00
2018-05-02T04:25:54.794Z,3.87
2018-05-02T04:28:22.316Z,3.90
2018-05-02T04:30:49.799Z,4.00
2018-05-02T04:33:17.274Z,4.23
2018-05-02T04:35:45.517Z,4.10
2018-05-02T04:38:12.990Z,4.03
2018-05-02T04:40:40.458Z,3.67
2018-05-02T04:43:07.946Z,3.83
2018-05-02T04:45:35.427Z,4.13
2018-05-02T04:48:03.680Z,4.00
2018-05-02T04:50:31.314Z,3.93
2018-05-02T04:52:59.597Z,3.60
2018-05-02T04:55:28.546Z,3.60
2018-05-02T04:57:57.012Z,4.10
2018-05-02T05:00:26.372Z,4.17
2018-05-02T05:02:53.899Z,4.40
2018-05-02T05:05:21.367Z,4.43
2018-05-02T05:07:48.899Z,4.00
2018-05-02T05:10:16.371Z,4.17
2018-05-02T05:12:43.879Z,3.40
2018-05-02T05:15:11.945Z,3.57
2018-05-02T05:17:39.420Z,4.17
2018-05-02T05:20:06.946Z,3.73
2018-05-02T05:22:34.420Z,3.63
2018-05-02T05:25:01.916Z,4.33
2018-05-02T05:27:30.216Z,3.60
2018-05-02T05:29:57.699Z,3.10
2018-05-02T05:32:25.782Z,4.10
2018-05-02T05:34:53.302Z,3.13
2018-05-02T05:37:20.779Z,3.53
2018-05-02T05:39:48.368Z,3.43
2018-05-02T05:42:16.605Z,3.57
2018-05-02T05:44:44.840Z,3.40
2018-05-02T05:47:12.311Z,3.30
2018-05-02T05:49:39.791Z,3.20
2018-05-02T05:52:07.315Z,3.33
2018-05-02T05:54:34.804Z,3.27
2018-05-02T05:57:02.287Z,3.13
2018-05-02T05:59:29.760Z,3.07
2018-05-02T06:01:57.254Z,3.40
2018-05-02T06:04:24.733Z,3.13
2018-05-02T06:06:52.321Z,3.63
2018-05-02T06:09:19.716Z,3.83
2018-05-02T06:11:47.203Z,3.27
2018-05-02T06:14:14.681Z,3.30
2018-05-02T06:16:42.258Z,2.73
2018-05-02T06:19:09.730Z,2.93
2018-05-02T06:21:37.229Z,3.07
2018-05-02T06:24:04.707Z,2.73
2018-05-02T06:26:32.187Z,3.00
2018-05-02T06:28:59.672Z,3.00
2018-05-02T06:31:27.181Z,2.70
2018-05-02T06:33:54.660Z,2.70
2018-05-02T06:36:22.904Z,2.77
2018-05-02T06:38:50.382Z,2.57
2018-05-02T06:41:17.920Z,2.77
2018-05-02T06:43:45.407Z,2.50
2018-05-02T06:46:12.979Z,2.73
2018-05-02T06:48:40.559Z,2.50
2018-05-02T06:51:08.035Z,2.40
2018-05-02T06:53:35.638Z,2.70
2018-05-02T06:56:03.118Z,2.60
2018-05-02T06:58:30.649Z,2.63
2018-05-02T07:00:58.236Z,2.40
2018-05-02T07:03:26.407Z,2.50
2018-05-02T07:05:53.888Z,2.43
2018-05-02T07:08:21.411Z,2.10
2018-05-02T07:10:48.889Z,2.40
2018-05-02T07:13:16.382Z,2.57
2018-05-02T07:15:43.963Z,2.20
2018-05-02T07:18:11.455Z,2.47
2018-05-02T07:20:39.046Z,2.30
2018-05-02T07:23:06.550Z,2.50
2018-05-02T07:25:34.796Z,2.30
2018-05-02T07:28:02.303Z,2.17
2018-05-02T07:30:29.790Z,2.60
2018-05-02T07:32:57.356Z,2.30
2018-05-02T07:35:24.786Z,1.97
2018-05-02T07:37:52.270Z,1.70
2018-05-02T07:40:20.529Z,2.23
2018-05-02T07:42:48.043Z,2.17
2018-05-02T07:45:17.039Z,2.20
2018-05-02T07:47:44.533Z,2.10
2018-05-02T07:50:12.004Z,2.13
2018-05-02T07:52:39.497Z,2.30
2018-05-02T07:55:06.988Z,1.93
2018-05-02T07:57:34.472Z,2.33
2018-05-02T08:00:02.048Z,2.37
2018-05-02T08:02:29.631Z,2.13
2018-05-02T08:04:57.103Z,2.23
2018-05-02T08:07:24.616Z,2.20
2018-05-02T08:09:52.091Z,2.20
2018-05-02T08:12:19.574Z,2.30
2018-05-02T08:14:47.051Z,2.20
2018-05-02T08:17:14.591Z,2.07
2018-05-02T08:19:42.170Z,2.60
2018-05-02T08:22:09.719Z,1.70
2018-05-02T08:24:37.154Z,1.83
2018-05-02T08:27:04.727Z,1.90
2018-05-02T08:29:32.201Z,2.27
2018-05-02T08:31:59.683Z,2.40
2018-05-02T08:34:27.179Z,1.97
2018-05-02T08:36:54.650Z,1.90
2018-05-02T08:39:22.128Z,2.17
2018-05-02T08:41:49.600Z,2.00
2018-05-02T08:44:17.076Z,1.73
2018-05-02T08:46:45.319Z,2.20
2018-05-02T08:49:12.847Z,2.10
2018-05-02T08:51:40.323Z,2.63
2018-05-02T08:54:07.803Z,2.17
2018-05-02T08:56:35.276Z,2.37
2018-05-02T08:59:03.521Z,2.00
2018-05-02T09:01:31.002Z,2.23
2018-05-02T09:03:58.511Z,2.00
2018-05-02T09:06:25.984Z,2.00
2018-05-02T09:08:53.759Z,1.83
2018-05-02T09:11:21.272Z,1.50
2018-05-02T09:13:48.766Z,1.97
2018-05-02T09:16:16.362Z,1.50
2018-05-02T09:18:43.935Z,1.73
2018-05-02T09:21:11.420Z,1.50
2018-05-02T09:23:38.935Z,1.70
2018-05-02T09:26:06.516Z,1.40
2018-05-02T09:28:33.991Z,1.60
2018-05-02T09:31:01.496Z,1.90
2018-05-02T09:33:28.975Z,1.60
2018-05-02T09:35:56.451Z,1.50
2018-05-02T09:38:23.931Z,1.37
2018-05-02T09:40:51.519Z,1.90
2018-05-02T09:43:19.008Z,1.83
2018-05-02T09:45:46.591Z,1.50
2018-05-02T09:48:14.178Z,1.87
2018-05-02T09:50:43.179Z,1.70
2018-05-02T09:53:10.672Z,1.80
2018-05-02T09:55:38.268Z,1.57
2018-05-02T09:58:05.754Z,1.70
2018-05-02T10:00:33.248Z,1.50
2018-05-02T10:03:00.732Z,1.70
2018-05-02T10:05:28.320Z,1.60
2018-05-02T10:07:55.796Z,1.80
2018-05-02T10:10:23.271Z,1.60
2018-05-02T10:12:50.797Z,1.40
2018-05-02T10:15:18.375Z,1.23
2018-05-02T10:17:46.639Z,1.00
2018-05-02T10:20:14.127Z,1.37
2018-05-02T10:22:41.593Z,1.40
2018-05-02T10:25:09.066Z,1.45
2018-05-02T10:27:36.547Z,1.60
2018-05-02T10:30:04.022Z,1.48
2018-05-02T10:32:31.489Z,1.35
2018-05-02T10:34:58.962Z,1.70
2018-05-02T10:37:26.438Z,1.55
2018-05-02T10:39:53.906Z,1.67
2018-05-02T10:42:21.390Z,1.30
2018-05-02T10:44:48.859Z,1.30
2018-05-02T10:47:16.350Z,1.60
2018-05-02T10:49:43.823Z,1.60
2018-05-02T10:52:11.318Z,1.30
2018-05-02T10:54:38.790Z,1.70
2018-05-02T10:57:06.262Z,1.30
2018-05-02T10:59:33.729Z,1.33
2018-05-02T11:02:01.207Z,1.52
2018-05-02T11:04:28.673Z,1.50
2018-05-02T11:06:56.151Z,1.83
2018-05-02T11:09:24.385Z,1.40
2018-05-02T11:11:52.626Z,1.25
2018-05-02T11:14:20.098Z,1.23
2018-05-02T11:16:47.587Z,1.70
2018-05-02T11:19:15.083Z,1.20
2018-05-02T11:21:42.564Z,1.60
2018-05-02T11:24:10.045Z,1.60
2018-05-02T11:26:37.520Z,1.33
2018-05-02T11:29:05.002Z,1.40
2018-05-02T11:31:33.247Z,1.60
2018-05-02T11:34:00.735Z,1.20
2018-05-02T11:36:28.976Z,1.80
2018-05-02T11:38:56.460Z,1.35
2018-05-02T11:41:24.698Z,1.30
2018-05-02T11:43:52.167Z,1.30
2018-05-02T11:46:19.665Z,1.42
2018-05-02T11:48:47.895Z,1.20
2018-05-02T11:51:15.397Z,1.65
2018-05-02T11:53:42.874Z,1.40
2018-05-02T11:56:10.345Z,1.30
2018-05-02T11:58:37.819Z,1.27
2018-05-02T12:01:05.292Z,1.50
2018-05-02T12:03:32.807Z,1.30
2018-05-02T12:06:01.027Z,1.70
2018-05-02T12:08:29.281Z,1.50
2018-05-02T12:10:56.757Z,1.60
2018-05-02T12:13:24.225Z,1.48
2018-05-02T12:15:52.481Z,1.60
2018-05-02T12:18:19.945Z,1.55
2018-05-02T12:20:47.434Z,1.42
2018-05-02T12:23:14.918Z,1.60
2018-05-02T12:25:42.399Z,1.37
2018-05-02T12:28:09.878Z,1.60
2018-05-02T12:30:37.347Z,1.90
2018-05-02T12:33:05.587Z,1.53
2018-05-02T12:35:33.058Z,1.60
2018-05-02T12:38:00.587Z,1.40
2018-05-02T12:40:28.055Z,1.70
2018-05-02T12:42:55.521Z,1.27
2018-05-02T12:45:23.006Z,1.70
2018-05-02T12:47:51.238Z,1.33
2018-05-02T12:50:18.712Z,1.30
2018-05-02T12:52:46.194Z,1.60
2018-05-02T12:55:14.461Z,1.30
2018-05-02T12:57:42.731Z,1.50
2018-05-02T13:00:10.214Z,1.50
2018-05-02T13:02:38.469Z,1.77
2018-05-02T13:05:05.946Z,1.70
2018-05-02T13:07:34.204Z,1.40
2018-05-02T13:10:02.439Z,1.90
2018-05-02T13:12:29.924Z,1.70
2018-05-02T13:14:57.404Z,1.70
2018-05-02T13:17:25.630Z,2.10
2018-05-02T13:19:53.093Z,1.90
2018-05-02T13:22:20.557Z,1.70
2018-05-02T13:24:48.021Z,1.63
2018-05-02T13:27:15.497Z,1.43
2018-05-02T13:29:43.769Z,1.50
2018-05-02T13:32:12.008Z,1.60
2018-05-02T13:34:39.505Z,1.70
2018-05-02T13:37:07.790Z,1.30
2018-05-02T13:39:35.242Z,1.50
2018-05-02T13:42:03.477Z,1.60
2018-05-02T13:44:30.949Z,1.30
2018-05-02T13:46:58.423Z,1.77
2018-05-02T13:49:26.708Z,1.33
2018-05-02T13:51:54.192Z,1.50
2018-05-02T13:54:21.669Z,1.23
2018-05-02T13:56:49.137Z,1.50
2018-05-02T13:59:16.614Z,1.30
2018-05-02T14:01:44.087Z,1.30
2018-05-02T14:04:12.330Z,1.70
2018-05-02T14:06:39.792Z,1.53
2018-05-02T14:09:07.263Z,1.33
2018-05-02T14:11:34.733Z,1.50
2018-05-02T14:14:02.969Z,1.60
2018-05-02T14:16:30.437Z,1.50
2018-05-02T14:18:57.913Z,1.50
2018-05-02T14:21:26.174Z,1.30
2018-05-02T14:23:53.637Z,1.10
2018-05-02T14:26:21.111Z,1.30
2018-05-02T14:28:49.353Z,1.20
2018-05-02T14:31:16.826Z,1.20
2018-05-02T14:33:44.298Z,1.17
2018-05-02T14:36:12.536Z,1.50
2018-05-02T14:38:40.046Z,1.37
2018-05-02T14:41:07.530Z,1.67
2018-05-02T14:43:35.104Z,1.40
2018-05-02T14:46:02.751Z,1.53
2018-05-02T14:48:30.320Z,1.17
2018-05-02T14:50:57.830Z,1.37
2018-05-02T14:53:26.073Z,1.60
2018-05-02T14:55:53.585Z,1.23
2018-05-02T14:58:21.065Z,1.40
2018-05-02T15:00:48.534Z,1.40
2018-05-02T15:03:16.013Z,1.50
2018-05-02T15:05:43.490Z,1.50
2018-05-02T15:08:11.749Z,1.30
2018-05-02T15:10:39.206Z,1.40
2018-05-02T15:13:06.677Z,1.30
2018-05-02T15:15:34.909Z,1.40
2018-05-02T15:18:02.457Z,1.40
2018-05-02T15:20:29.869Z,1.37
2018-05-02T15:22:58.264Z,1.50
2018-05-02T15:25:25.878Z,1.30
2018-05-02T15:27:54.152Z,1.57
2018-05-02T15:30:21.628Z,1.43
2018-05-02T15:32:50.068Z,1.60
2018-05-02T15:35:17.536Z,1.50
2018-05-02T15:37:45.014Z,1.60
2018-05-02T15:40:13.269Z,1.50
2018-05-02T15:42:40.746Z,1.40
2018-05-02T15:45:08.227Z,1.30
2018-05-02T15:47:36.459Z,1.57
2018-05-02T15:50:04.727Z,1.43
2018-05-02T15:52:32.198Z,1.50
2018-05-02T15:54:59.670Z,1.40
2018-05-02T15:57:27.919Z,1.40
2018-05-02T15:59:55.392Z,1.47
2018-05-02T16:02:22.863Z,1.60
2018-05-02T16:04:51.101Z,1.40
2018-05-02T16:07:19.400Z,1.50
2018-05-02T16:09:46.884Z,1.50
2018-05-02T16:12:14.389Z,1.40
2018-05-02T16:14:41.853Z,1.30
2018-05-02T16:17:09.451Z,1.50
2018-05-02T16:19:37.710Z,2.13
2018-05-02T16:22:05.194Z,1.70
2018-05-02T16:24:32.689Z,1.53
2018-05-02T16:27:00.176Z,1.37
2018-05-02T16:29:27.641Z,1.40
2018-05-02T16:31:55.111Z,1.50
2018-05-02T16:34:22.595Z,1.73
2018-05-02T16:36:50.062Z,1.60
2018-05-02T16:39:17.532Z,1.67
2018-05-02T16:41:45.008Z,1.60
2018-05-02T16:44:12.490Z,1.60
2018-05-02T16:46:40.721Z,1.53
2018-05-02T16:49:08.221Z,1.90
2018-05-02T16:51:35.741Z,1.83
2018-05-02T16:54:03.210Z,1.60
2018-05-02T16:56:30.709Z,2.20
2018-05-02T16:58:58.157Z,2.57
2018-05-02T17:01:26.401Z,2.70
2018-05-02T17:03:53.875Z,1.80
2018-05-02T17:06:21.906Z,1.97
2018-05-02T17:08:49.732Z,1.50
2018-05-02T17:11:18.190Z,1.60
2018-05-02T17:13:46.766Z,1.80
2018-05-02T17:16:15.034Z,1.50
2018-05-02T17:18:42.629Z,1.60
2018-05-02T17:21:10.877Z,1.80
2018-05-02T17:23:38.353Z,1.67
2018-05-02T17:26:06.601Z,1.70
2018-05-02T17:28:34.073Z,1.47
2018-05-02T17:31:01.543Z,1.70
2018-05-02T17:33:29.778Z,1.80
2018-05-02T17:35:57.289Z,1.60
2018-05-02T17:38:24.758Z,1.60
2018-05-02T17:40:52.265Z,2.00
2018-05-02T17:43:19.727Z,2.43
2018-05-02T17:45:47.214Z,2.60
2018-05-02T17:48:14.723Z,2.67
2018-05-02T17:50:42.206Z,2.60
2018-05-02T17:53:10.466Z,2.30
2018-05-02T17:55:37.968Z,3.33
2018-05-02T17:58:05.453Z,3.00
2018-05-02T18:00:32.962Z,3.27
2018-05-02T18:03:01.202Z,3.10
2018-05-02T18:05:28.700Z,2.60
2018-05-02T18:07:56.158Z,3.00
2018-05-02T18:10:24.449Z,3.47
2018-05-02T18:12:51.885Z,4.73
2018-05-02T18:15:20.129Z,7.90
2018-05-02T18:17:47.615Z,2.23
2018-05-02T18:20:15.853Z,1.87
2018-05-02T18:22:43.333Z,1.90
2018-05-02T18:25:10.810Z,2.60
2018-05-02T18:27:39.046Z,2.20
2018-05-02T18:30:07.284Z,2.20
2018-05-02T18:32:35.519Z,2.70
2018-05-02T18:35:02.994Z,2.63
2018-05-02T18:37:31.237Z,2.40
2018-05-02T18:39:58.725Z,2.10
2018-05-02T18:42:27.011Z,2.40
2018-05-02T18:44:54.483Z,1.83
2018-05-02T18:47:21.972Z,2.23
2018-05-02T18:49:49.442Z,1.73
2018-05-02T18:52:16.917Z,1.90
2018-05-02T18:54:45.224Z,2.00
2018-05-02T18:57:12.702Z,2.13
2018-05-02T18:59:40.187Z,2.20
2018-05-02T19:02:07.677Z,2.30
2018-05-02T19:04:35.920Z,2.10
2018-05-02T19:07:03.400Z,2.20
2018-05-02T19:09:31.654Z,2.23
2018-05-02T19:11:59.255Z,1.80
2018-05-02T19:14:26.889Z,2.10
2018-05-02T19:16:55.257Z,2.67
2018-05-02T19:19:28.628Z,2.30
2018-05-02T19:21:56.102Z,2.30
2018-05-02T19:24:23.767Z,2.70
2018-05-02T19:26:51.372Z,3.03
2018-05-02T19:29:18.944Z,2.70
2018-05-02T19:31:52.186Z,2.80
2018-05-02T19:34:19.663Z,2.50
2018-05-02T19:36:47.922Z,2.50
2018-05-02T19:39:15.400Z,2.23
2018-05-02T19:41:48.610Z,2.17
2018-05-02T19:44:16.167Z,2.20
2018-05-02T19:46:43.595Z,2.50
2018-05-02T19:49:11.845Z,2.30
2018-05-02T19:51:45.116Z,2.43
2018-05-02T19:54:13.353Z,2.40
2018-05-02T19:56:40.833Z,2.43
2018-05-02T19:59:08.306Z,2.50
2018-05-02T20:01:41.534Z,2.37
2018-05-02T20:04:09.005Z,2.20
2018-05-02T20:06:37.248Z,2.47
2018-05-02T20:09:11.188Z,3.03
2018-05-02T20:11:45.302Z,3.00
2018-05-02T20:14:13.553Z,3.53
2018-05-02T20:16:41.030Z,3.50
2018-05-02T20:19:09.358Z,3.10
2018-05-02T20:21:36.767Z,2.93
2018-05-02T20:24:05.005Z,2.80
2018-05-02T20:26:32.490Z,2.80
2018-05-02T20:29:00.736Z,3.40
2018-05-02T20:31:28.225Z,3.10
2018-05-02T20:33:56.464Z,3.13
2018-05-02T20:36:23.935Z,3.53
2018-05-02T20:38:51.406Z,3.37
2018-05-02T20:41:19.644Z,3.13
2018-05-02T20:43:47.107Z,3.17
2018-05-02T20:46:14.577Z,3.00
2018-05-02T20:48:42.053Z,3.40
2018-05-02T20:51:10.290Z,3.17
2018-05-02T20:53:37.755Z,3.13
2018-05-02T20:56:05.219Z,3.27
2018-05-02T20:58:32.687Z,3.57
2018-05-02T21:01:00.160Z,3.40
2018-05-02T21:03:28.394Z,3.60
2018-05-02T21:05:55.866Z,3.53
2018-05-02T21:08:23.338Z,3.90
2018-05-02T21:10:50.801Z,3.73
2018-05-02T21:13:19.048Z,3.90
2018-05-02T21:15:46.517Z,4.13
2018-05-02T21:18:14.753Z,3.33
2018-05-02T21:20:42.217Z,3.40
2018-05-02T21:23:09.685Z,3.60
2018-05-02T21:25:37.153Z,3.90
2018-05-02T21:28:04.626Z,3.80
2018-05-02T21:30:32.095Z,3.40
2018-05-02T21:33:00.329Z,3.43
2018-05-02T21:35:27.794Z,3.10
2018-05-02T21:37:55.265Z,3.50
2018-05-02T21:40:22.738Z,3.53
2018-05-02T21:42:50.974Z,3.30
2018-05-02T21:45:18.451Z,3.53
2018-05-02T21:47:45.929Z,3.40
2018-05-02T21:50:13.411Z,3.47
2018-05-02T21:52:40.888Z,3.30
2018-05-02T21:55:09.168Z,3.33
2018-05-02T21:57:36.634Z,3.67
2018-05-02T22:00:04.105Z,3.30
2018-05-02T22:02:31.579Z,3.13
2018-05-02T22:04:59.823Z,3.13
2018-05-02T22:07:27.303Z,3.80
2018-05-02T22:09:54.798Z,3.10
2018-05-02T22:12:22.277Z,3.33
2018-05-02T22:14:49.745Z,3.63
2018-05-02T22:17:17.231Z,3.57
2018-05-02T22:19:44.701Z,3.50
2018-05-02T22:22:12.948Z,2.90
2018-05-02T22:24:41.198Z,3.60
2018-05-02T22:27:08.692Z,3.40
2018-05-02T22:29:36.161Z,3.00
2018-05-02T22:32:04.410Z,3.13
2018-05-02T22:34:31.874Z,3.53
2018-05-02T22:36:59.341Z,3.10
2018-05-02T22:39:26.805Z,3.40
2018-05-02T22:41:55.046Z,3.50
2018-05-02T22:44:22.515Z,3.80
2018-05-02T22:46:49.999Z,3.53
2018-05-02T22:49:18.242Z,3.70
2018-05-02T22:51:45.717Z,3.70
2018-05-02T22:54:13.189Z,3.57
2018-05-02T22:56:41.423Z,3.23
2018-05-02T22:59:08.903Z,4.03
2018-05-02T23:01:36.389Z,4.23
2018-05-02T23:04:04.649Z,4.03
2018-05-02T23:06:32.880Z,4.07
2018-05-02T23:09:00.369Z,4.27
2018-05-02T23:11:27.837Z,4.80
2018-05-02T23:13:56.075Z,4.57
2018-05-02T23:16:23.542Z,4.27
2018-05-02T23:18:51.013Z,4.10
2018-05-02T23:21:18.483Z,4.30
2018-05-02T23:23:46.727Z,4.10
2018-05-02T23:26:14.199Z,4.30
2018-05-02T23:28:41.663Z,4.07
2018-05-02T23:31:09.136Z,4.43
2018-05-02T23:33:37.366Z,4.17
2018-05-02T23:36:05.609Z,4.17
2018-05-02T23:38:33.080Z,4.17
2018-05-02T23:41:00.557Z,3.90
2018-05-02T23:43:28.025Z,3.90
2018-05-02T23:45:55.497Z,4.10
2018-05-02T23:48:22.974Z,4.00
2018-05-02T23:50:51.223Z,3.90
2018-05-02T23:53:18.688Z,4.27
2018-05-02T23:55:46.186Z,4.20
2018-05-02T23:58:13.669Z,4.10
